Time;durP1;ratioP1;P1;durP2;ratioP2;P2;SDS_P1;SDS_P2;PMS_P1;PMS_P2;Temp;Humidity;BMP_temperature;BMP_pressure;BME280_temperature;BME280_humidity;BME280_pressure;Samples;Min_cycle;Max_cycle;Signal;HPM_P1;HPM_P2
2021/07/03 00:00:39;;;;;;;10.67;9.57;;;17.50;99.90;;;;;;4965720;28;20492;-77
2021/07/03 00:03:08;;;;;;;11.50;8.53;;;17.50;99.90;;;;;;4951039;28;20486;-77
2021/07/03 00:05:36;;;;;;;10.70;8.67;;;17.40;99.90;;;;;;4951126;28;20466;-77
2021/07/03 00:18:07;;;;;;;9.73;8.83;;;17.30;99.90;;;;;;4934156;29;20457;-77
2021/07/03 00:20:36;;;;;;;11.20;9.97;;;17.20;99.90;;;;;;4934975;29;20502;-77
2021/07/03 00:23:12;;;;;;;9.53;8.43;;;17.20;99.90;;;;;;4934938;29;20479;-77
2021/07/03 00:26:19;;;;;;;10.70;9.47;;;17.20;99.90;;;;;;4947699;28;20464;-77
2021/07/03 00:28:49;;;;;;;9.07;8.20;;;17.10;99.90;;;;;;4954308;29;20490;-77
2021/07/03 00:34:44;;;;;;;11.00;9.90;;;17.10;99.90;;;;;;4955698;28;20539;-77
2021/07/03 00:43:37;;;;;;;10.63;9.40;;;17.00;99.90;;;;;;4955060;28;20485;-77
2021/07/03 00:49:48;;;;;;;11.30;10.20;;;16.90;99.90;;;;;;4954962;28;20478;-77
2021/07/03 00:52:22;;;;;;;11.33;10.10;;;16.90;99.90;;;;;;4955024;28;20924;-77
2021/07/03 00:57:46;;;;;;;11.00;9.90;;;16.90;99.90;;;;;;4936223;29;20535;-77
2021/07/03 01:03:40;;;;;;;11.17;9.90;;;16.80;99.90;;;;;;4934173;29;20454;-77
2021/07/03 01:11:49;;;;;;;12.20;11.00;;;16.70;99.90;;;;;;4933952;29;20832;-77
2021/07/03 01:14:22;;;;;;;12.10;10.80;;;16.70;99.90;;;;;;4934464;29;20545;-77
2021/07/03 01:17:24;;;;;;;11.97;10.90;;;16.70;99.90;;;;;;4930089;29;20437;-76
2021/07/03 01:20:10;;;;;;;12.53;11.33;;;16.70;99.90;;;;;;4952584;28;20481;-77
2021/07/03 01:26:15;;;;;;;12.83;10.47;;;16.70;99.90;;;;;;4958414;29;20234;-77
2021/07/03 05:11:17;;;;;;;18.00;16.30;;;15.30;99.90;;;;;;5015047;28;20953;-75
2021/07/03 05:13:46;;;;;;;18.40;16.50;;;15.30;99.90;;;;;;4999565;28;20450;-75
2021/07/03 05:16:14;;;;;;;19.90;16.70;;;15.40;99.90;;;;;;5017315;28;20482;-75
2021/07/03 05:18:42;;;;;;;19.60;17.50;;;15.40;99.90;;;;;;4999573;28;20446;-75
2021/07/03 05:21:10;;;;;;;18.40;16.60;;;15.40;99.90;;;;;;5017696;28;20473;-75
2021/07/03 05:23:38;;;;;;;17.53;15.83;;;15.40;99.90;;;;;;5017949;28;20416;-74
2021/07/03 05:26:07;;;;;;;16.50;14.90;;;15.50;99.90;;;;;;5017284;28;20507;-75
2021/07/03 05:28:36;;;;;;;17.70;15.20;;;15.50;99.90;;;;;;4999285;28;20492;-75
2021/07/03 05:31:04;;;;;;;17.90;16.20;;;15.50;99.90;;;;;;5017060;28;20528;-75
2021/07/03 05:33:32;;;;;;;18.37;16.40;;;15.60;99.90;;;;;;5017689;28;20853;-75
2021/07/03 05:36:02;;;;;;;18.33;16.60;;;15.70;99.90;;;;;;4999031;28;20536;-75
2021/07/03 05:38:39;;;;;;;17.97;16.13;;;15.70;99.90;;;;;;5017026;28;20540;-75
2021/07/03 05:41:07;;;;;;;16.67;14.60;;;15.80;99.90;;;;;;4999006;28;20547;-75
2021/07/03 05:43:37;;;;;;;15.60;14.10;;;16.00;99.90;;;;;;5016664;28;20421;-75
2021/07/03 05:46:06;;;;;;;15.07;13.40;;;16.20;99.90;;;;;;4999281;28;20456;-75
2021/07/03 05:48:35;;;;;;;15.17;13.60;;;16.30;99.90;;;;;;4999287;28;20463;-75
2021/07/03 05:51:03;;;;;;;14.60;13.00;;;16.60;99.90;;;;;;4999195;28;20574;-75
2021/07/03 05:53:32;;;;;;;14.38;12.88;;;16.80;99.90;;;;;;5015586;28;21019;-75
2021/07/03 05:56:00;;;;;;;13.10;11.77;;;17.20;99.90;;;;;;5016393;28;20193;-75
2021/07/03 05:58:28;;;;;;;12.70;11.40;;;17.50;99.90;;;;;;4998666;28;20537;-75
2021/07/03 06:00:57;;;;;;;12.70;11.50;;;17.70;99.90;;;;;;5016948;28;20545;-75
2021/07/03 06:03:26;;;;;;;12.50;11.00;;;18.00;99.90;;;;;;5018340;28;20524;-75
2021/07/03 06:05:54;;;;;;;10.53;9.63;;;18.30;99.90;;;;;;5015950;28;20514;-75
2021/07/03 06:08:22;;;;;;;13.13;9.67;;;18.50;99.90;;;;;;5017115;28;20446;-76
2021/07/03 06:10:50;;;;;;;10.53;9.40;;;18.80;99.90;;;;;;5016135;28;20508;-75
2021/07/03 06:13:18;;;;;;;10.97;9.87;;;19.00;99.90;;;;;;5016639;28;20431;-75
2021/07/03 06:15:47;;;;;;;10.67;8.10;;;19.30;99.90;;;;;;5000272;28;20450;-76
2021/07/03 06:18:17;;;;;;;10.60;9.60;;;19.50;99.90;;;;;;5000306;28;20445;-76
2021/07/03 06:20:45;;;;;;;11.70;9.57;;;19.80;99.90;;;;;;5016120;28;20814;-75
2021/07/03 06:23:14;;;;;;;8.40;7.60;;;20.10;99.90;;;;;;5001000;28;20861;-75
2021/07/03 06:25:42;;;;;;;9.30;7.53;;;20.40;99.90;;;;;;4998276;28;20468;-75
2021/07/03 06:28:10;;;;;;;7.10;6.03;;;20.60;99.90;;;;;;5016244;28;20503;-75
2021/07/03 06:30:38;;;;;;;7.77;6.97;;;20.90;99.90;;;;;;5016663;28;20513;-75
2021/07/03 06:33:06;;;;;;;8.90;8.00;;;21.10;99.90;;;;;;5015241;28;20454;-75
2021/07/03 06:35:36;;;;;;;10.60;7.60;;;21.30;99.90;;;;;;4997882;28;20956;-75
2021/07/03 06:38:05;;;;;;;8.37;6.10;;;21.50;99.90;;;;;;5015916;28;20916;-74
2021/07/03 06:40:33;;;;;;;8.20;7.03;;;21.70;99.90;;;;;;5015627;28;20452;-75
2021/07/03 06:43:02;;;;;;;7.80;7.03;;;21.90;99.90;;;;;;5015726;28;20432;-74
2021/07/03 06:45:30;;;;;;;6.47;5.87;;;22.10;99.90;;;;;;5016180;28;20503;-75
2021/07/03 06:47:58;;;;;;;6.57;5.77;;;22.20;99.90;;;;;;5015433;28;20527;-74
2021/07/03 06:50:26;;;;;;;7.13;6.53;;;22.30;99.90;;;;;;5015369;28;20559;-74
2021/07/03 06:52:56;;;;;;;8.67;7.80;;;22.50;99.90;;;;;;5015305;28;20437;-74
2021/07/03 06:55:24;;;;;;;7.37;6.67;;;22.60;99.90;;;;;;5015231;28;20487;-74
2021/07/03 06:57:52;;;;;;;7.63;6.90;;;22.70;99.90;;;;;;5015105;28;20477;-74
2021/07/03 07:00:20;;;;;;;8.40;7.60;;;22.80;99.90;;;;;;5016201;28;20499;-74
2021/07/03 07:02:48;;;;;;;9.13;7.67;;;22.90;99.90;;;;;;4997455;28;20437;-74
2021/07/03 07:05:20;;;;;;;7.93;7.23;;;22.90;99.90;;;;;;4998378;28;20488;-73
2021/07/03 07:07:48;;;;;;;7.47;6.77;;;23.00;99.90;;;;;;5015662;28;20941;-74
2021/07/03 07:10:18;;;;;;;6.67;5.97;;;23.10;99.90;;;;;;5015072;28;20550;-74
2021/07/03 07:12:46;;;;;;;6.33;5.73;;;23.20;99.90;;;;;;5015479;28;20432;-74
2021/07/03 07:15:16;;;;;;;6.20;5.60;;;23.40;99.90;;;;;;5016172;28;20877;-74
2021/07/03 07:17:44;;;;;;;6.40;5.20;;;23.50;99.90;;;;;;4997850;28;20432;-74
2021/07/03 07:20:14;;;;;;;6.40;5.50;;;23.70;99.90;;;;;;4998074;28;20479;-74
2021/07/03 07:22:42;;;;;;;6.43;4.60;;;23.80;99.90;;;;;;5015308;28;20435;-75
2021/07/03 07:25:12;;;;;;;6.60;5.90;;;23.90;99.90;;;;;;5014657;28;20555;-74
2021/07/03 07:27:41;;;;;;;5.90;5.07;;;24.00;99.90;;;;;;5014948;28;20467;-74
2021/07/03 07:30:12;;;;;;;8.27;5.80;;;24.00;99.90;;;;;;4997831;28;20499;-73
2021/07/03 07:32:41;;;;;;;7.53;6.87;;;24.10;99.90;;;;;;5014852;28;20523;-73
2021/07/03 07:35:10;;;;;;;7.83;6.43;;;24.10;99.90;;;;;;4997268;28;20957;-73
2021/07/03 07:37:39;;;;;;;6.87;6.27;;;24.20;99.90;;;;;;5014784;28;20800;-73
2021/07/03 07:40:08;;;;;;;9.83;7.63;;;24.30;99.90;;;;;;5014495;28;20550;-73
2021/07/03 07:42:36;;;;;;;6.73;6.03;;;24.40;99.90;;;;;;5014838;28;20440;-73
2021/07/03 07:45:08;;;;;;;6.97;6.37;;;24.40;99.90;;;;;;4996560;28;20508;-73
2021/07/03 07:47:46;;;;;;;7.17;6.10;;;24.50;99.90;;;;;;5014243;28;20424;-73
2021/07/03 07:50:16;;;;;;;7.63;6.93;;;24.60;99.90;;;;;;4997313;28;20529;-73
2021/07/03 07:52:45;;;;;;;7.90;7.23;;;24.60;99.90;;;;;;5014851;28;20440;-73
2021/07/03 07:55:13;;;;;;;7.10;6.50;;;24.70;99.90;;;;;;4997199;28;21073;-74
2021/07/03 07:57:41;;;;;;;8.20;7.00;;;24.70;99.90;;;;;;5015491;28;20441;-75
2021/07/03 08:00:12;;;;;;;8.73;7.93;;;24.60;99.90;;;;;;5014799;28;20464;-74
2021/07/03 08:02:42;;;;;;;8.67;6.67;;;24.60;99.90;;;;;;5014151;28;20972;-73
2021/07/03 08:05:12;;;;;;;6.60;6.10;;;24.50;99.90;;;;;;4996525;28;20861;-74
2021/07/03 08:07:40;;;;;;;7.00;6.40;;;24.60;99.90;;;;;;5015465;28;20440;-73
2021/07/03 08:10:11;;;;;;;6.03;5.53;;;24.60;99.90;;;;;;4996765;28;21020;-74
2021/07/03 08:12:39;;;;;;;6.30;5.70;;;24.70;99.90;;;;;;4996422;28;20467;-74
2021/07/03 08:15:12;;;;;;;6.90;6.17;;;24.70;99.90;;;;;;4996983;28;20971;-73
2021/07/03 08:17:43;;;;;;;6.33;5.27;;;24.70;99.90;;;;;;5013682;28;20412;-74
2021/07/03 08:20:15;;;;;;;5.90;5.50;;;24.70;99.90;;;;;;5014799;28;20971;-73
2021/07/03 08:22:44;;;;;;;6.53;5.67;;;24.70;99.90;;;;;;4996349;28;20448;-74
2021/07/03 08:25:13;;;;;;;7.20;6.33;;;24.70;99.90;;;;;;4995950;28;20447;-73
2021/07/03 08:27:41;;;;;;;5.83;5.23;;;24.80;99.90;;;;;;4995976;28;20467;-73
2021/07/03 08:30:12;;;;;;;6.17;5.57;;;24.80;99.90;;;;;;5013333;28;20467;-75
2021/07/03 08:32:41;;;;;;;5.20;4.70;;;24.90;99.90;;;;;;5017474;23;20587;-74
2021/07/03 08:35:11;;;;;;;6.67;5.07;;;24.90;99.90;;;;;;5014801;28;20439;-76
2021/07/03 08:37:40;;;;;;;4.70;4.30;;;24.90;99.90;;;;;;5013823;28;20480;-74
2021/07/03 08:40:09;;;;;;;4.80;4.37;;;24.80;99.90;;;;;;5012796;28;20478;-76
2021/07/03 08:42:38;;;;;;;7.83;4.63;;;24.80;99.90;;;;;;5013290;28;20551;-77
2021/07/03 08:45:08;;;;;;;5.47;4.80;;;24.80;99.90;;;;;;5014700;28;20452;-76
2021/07/03 08:47:40;;;;;;;5.20;4.50;;;24.80;99.90;;;;;;5014312;28;20464;-76
2021/07/03 08:50:10;;;;;;;5.00;4.50;;;24.80;99.90;;;;;;5013138;28;20475;-75
2021/07/03 08:52:39;;;;;;;5.67;4.47;;;24.90;99.90;;;;;;5012844;28;20456;-76
2021/07/03 08:55:12;;;;;;;7.70;4.80;;;24.90;99.90;;;;;;5012955;28;20452;-76
2021/07/03 08:57:44;;;;;;;6.03;5.43;;;24.90;99.60;;;;;;5012457;28;20439;-76
2021/07/03 09:00:14;;;;;;;4.67;4.20;;;24.80;98.60;;;;;;5012628;28;20236;-76
2021/07/03 09:02:45;;;;;;;5.87;4.50;;;24.70;98.90;;;;;;5012742;28;20436;-75
2021/07/03 09:05:29;;;;;;;5.30;4.80;;;24.60;98.90;;;;;;5014362;28;20453;-76
2021/07/03 09:07:58;;;;;;;5.00;4.50;;;24.60;98.90;;;;;;5012549;28;20494;-76
2021/07/03 09:10:28;;;;;;;5.73;4.70;;;24.70;99.10;;;;;;5013207;28;20477;-76
2021/07/03 09:13:00;;;;;;;24.43;7.17;;;24.70;99.10;;;;;;5012633;28;20925;-76
2021/07/03 09:15:30;;;;;;;4.93;3.67;;;24.70;98.80;;;;;;5012697;28;20433;-76
2021/07/03 09:18:03;;;;;;;5.03;3.97;;;24.60;98.80;;;;;;5012556;28;20481;-75
2021/07/03 09:20:34;;;;;;;5.00;4.40;;;24.60;98.70;;;;;;5012338;28;20507;-76
2021/07/03 09:23:07;;;;;;;6.30;4.23;;;24.70;98.60;;;;;;5014258;28;20491;-75
2021/07/03 09:25:36;;;;;;;7.57;5.40;;;24.70;98.60;;;;;;5013074;28;20527;-77
2021/07/03 09:28:10;;;;;;;5.23;4.83;;;24.80;98.70;;;;;;5012705;28;20527;-76
2021/07/03 09:30:39;;;;;;;5.43;4.57;;;24.80;98.40;;;;;;5014610;28;21087;-77
2021/07/03 09:33:08;;;;;;;4.30;3.90;;;24.80;98.10;;;;;;5012552;28;20459;-77
2021/07/03 09:35:37;;;;;;;9.60;4.70;;;24.80;98.00;;;;;;5012106;28;20456;-77
2021/07/03 09:38:08;;;;;;;12.80;4.67;;;24.70;97.90;;;;;;5012159;28;21023;-77
2021/07/03 09:40:39;;;;;;;5.50;3.80;;;24.70;98.10;;;;;;5015270;28;20848;-78
2021/07/03 09:43:10;;;;;;;5.13;4.20;;;24.80;98.00;;;;;;5016624;28;20452;-78
2021/07/03 09:45:40;;;;;;;6.97;4.70;;;24.90;97.90;;;;;;5016284;28;20484;-77
2021/07/03 09:48:12;;;;;;;5.20;4.10;;;24.90;97.90;;;;;;5016169;28;20675;-76
2021/07/03 09:50:42;;;;;;;5.20;3.97;;;24.90;97.70;;;;;;5016941;28;20464;-77
2021/07/03 09:53:10;;;;;;;6.87;4.20;;;24.70;97.40;;;;;;5015591;28;20459;-74
2021/07/03 09:55:39;;;;;;;6.70;4.17;;;24.60;97.30;;;;;;5015140;28;20440;-74
2021/07/03 09:58:09;;;;;;;4.13;3.47;;;24.50;97.30;;;;;;5016411;28;20986;-78
2021/07/03 10:00:39;;;;;;;3.60;3.30;;;24.60;97.40;;;;;;5016167;28;20472;-79
2021/07/03 10:03:08;;;;;;;4.80;4.30;;;24.60;97.30;;;;;;5017120;28;20483;-80
2021/07/03 10:05:45;;;;;;;10.10;5.07;;;24.70;97.30;;;;;;5019084;28;20448;-80
2021/07/03 10:08:18;;;;;;;4.13;3.73;;;24.70;97.60;;;;;;5021637;28;20455;-79
2021/07/03 10:10:55;;;;;;;4.87;4.37;;;24.80;97.50;;;;;;5021600;28;20566;-80
2021/07/03 10:13:26;;;;;;;6.17;4.53;;;24.90;97.10;;;;;;5021973;28;20466;-78
2021/07/03 10:16:03;;;;;;;4.37;3.97;;;24.90;97.00;;;;;;5018082;28;20448;-78
2021/07/03 10:18:32;;;;;;;4.03;3.67;;;24.90;96.90;;;;;;5016620;28;20451;-76
2021/07/03 10:21:10;;;;;;;5.23;3.67;;;24.90;96.80;;;;;;5014433;28;20510;-75
2021/07/03 10:23:40;;;;;;;5.50;4.13;;;24.90;96.60;;;;;;5014590;28;21142;-75
2021/07/03 10:26:08;;;;;;;4.00;3.60;;;24.80;96.60;;;;;;5014521;28;20466;-73
2021/07/03 10:28:40;;;;;;;4.30;3.80;;;24.80;96.40;;;;;;5016022;28;20445;-74
2021/07/03 10:31:10;;;;;;;4.10;3.80;;;24.80;96.30;;;;;;5016632;28;20547;-73
2021/07/03 10:33:48;;;;;;;4.00;3.60;;;24.80;96.30;;;;;;5014886;28;20452;-73
2021/07/03 10:36:30;;;;;;;3.90;3.10;;;24.80;95.90;;;;;;5014390;28;20441;-74
2021/07/03 10:39:00;;;;;;;4.10;3.70;;;24.80;95.90;;;;;;5016066;28;20433;-74
2021/07/03 10:41:30;;;;;;;4.30;3.60;;;24.80;95.90;;;;;;5015894;28;20427;-74
2021/07/03 10:44:01;;;;;;;3.80;3.50;;;24.80;96.00;;;;;;5014202;28;20952;-74
2021/07/03 10:46:32;;;;;;;4.53;4.13;;;24.80;96.10;;;;;;5014155;28;20547;-74
2021/07/03 10:49:01;;;;;;;4.20;3.90;;;24.80;96.10;;;;;;5014095;28;20507;-74
2021/07/03 10:51:34;;;;;;;4.17;3.83;;;24.90;95.90;;;;;;5014892;28;20443;-74
2021/07/03 10:54:07;;;;;;;3.53;3.23;;;25.00;95.60;;;;;;5015197;28;20784;-74
2021/07/03 10:56:44;;;;;;;5.17;4.00;;;25.10;95.70;;;;;;5015511;28;20523;-74
2021/07/03 10:59:14;;;;;;;3.30;3.00;;;25.10;95.60;;;;;;5015370;28;20849;-74
2021/07/03 11:01:44;;;;;;;3.37;3.03;;;25.20;95.50;;;;;;5015466;28;20822;-74
2021/07/03 11:04:20;;;;;;;6.00;3.83;;;25.20;95.40;;;;;;5015266;28;20433;-74
2021/07/03 11:06:52;;;;;;;4.35;3.92;;;25.30;95.40;;;;;;5013159;28;20550;-74
2021/07/03 11:09:29;;;;;;;4.77;3.50;;;25.30;94.80;;;;;;5015216;28;20263;-74
2021/07/03 11:12:10;;;;;;;3.60;3.30;;;25.40;94.90;;;;;;5013857;28;20523;-74
2021/07/03 11:14:41;;;;;;;4.00;3.60;;;25.40;95.00;;;;;;5013622;28;20444;-74
2021/07/03 11:17:09;;;;;;;5.03;4.00;;;25.40;95.00;;;;;;5014407;28;20450;-74
2021/07/03 11:19:43;;;;;;;5.00;3.83;;;25.30;94.90;;;;;;5013533;28;20498;-74
2021/07/03 11:22:13;;;;;;;4.07;3.77;;;25.20;94.90;;;;;;5013467;28;20480;-74
2021/07/03 11:24:46;;;;;;;4.03;3.63;;;25.10;94.90;;;;;;5014871;28;20428;-74
2021/07/03 11:27:28;;;;;;;4.53;3.60;;;25.00;95.00;;;;;;5015032;28;20899;-74
2021/07/03 11:29:57;;;;;;;4.47;3.20;;;25.00;95.10;;;;;;5014557;28;20462;-74
2021/07/03 11:32:25;;;;;;;3.50;3.17;;;25.10;95.00;;;;;;5013290;28;20559;-74
2021/07/03 11:34:55;;;;;;;3.20;2.90;;;25.10;95.10;;;;;;5013167;28;20857;-74
2021/07/03 11:37:30;;;;;;;3.90;3.00;;;25.20;95.00;;;;;;5015063;28;20449;-75
2021/07/03 11:40:00;;;;;;;4.03;3.63;;;25.30;94.90;;;;;;5013161;28;20546;-74
2021/07/03 11:42:32;;;;;;;4.03;3.60;;;25.40;94.90;;;;;;5013028;28;20443;-70
2021/07/03 11:45:00;;;;;;;6.47;4.17;;;25.40;94.60;;;;;;5015098;28;20901;-74
2021/07/03 11:47:34;;;;;;;4.20;3.80;;;25.40;94.60;;;;;;5012895;28;20530;-75
2021/07/03 11:50:02;;;;;;;4.67;4.03;;;25.40;94.40;;;;;;5012678;28;20647;-73
2021/07/03 11:52:41;;;;;;;3.70;3.37;;;25.40;94.30;;;;;;5012813;28;20539;-74
2021/07/03 11:55:11;;;;;;;3.50;3.07;;;25.50;94.20;;;;;;5012787;28;20876;-74
2021/07/03 11:57:41;;;;;;;3.60;3.30;;;25.50;94.20;;;;;;5014324;28;20462;-75
2021/07/03 12:00:13;;;;;;;3.77;3.30;;;25.50;94.10;;;;;;5012718;28;20473;-77
2021/07/03 12:02:42;;;;;;;4.53;2.97;;;25.60;93.90;;;;;;5014460;28;20420;-76
2021/07/03 12:05:14;;;;;;;6.70;4.07;;;25.60;94.00;;;;;;5012375;28;20444;-76
2021/07/03 12:07:43;;;;;;;4.07;3.30;;;25.50;93.80;;;;;;5012896;28;20474;-77
2021/07/03 12:10:12;;;;;;;3.27;2.97;;;25.40;93.80;;;;;;5012681;28;20984;-75
2021/07/03 12:12:41;;;;;;;5.67;4.30;;;25.40;93.90;;;;;;5012910;28;20824;-76
2021/07/03 12:15:12;;;;;;;5.27;3.93;;;25.30;93.90;;;;;;5015010;28;20451;-78
2021/07/03 12:17:47;;;;;;;13.37;4.33;;;25.30;94.20;;;;;;5013322;28;20447;-76
2021/07/03 12:20:18;;;;;;;4.47;3.80;;;25.30;94.00;;;;;;5014123;28;20473;-76
2021/07/03 12:22:58;;;;;;;4.30;3.60;;;25.30;94.10;;;;;;5012525;28;20535;-76
2021/07/03 12:25:26;;;;;;;4.37;3.93;;;25.30;94.00;;;;;;5012539;28;20503;-76
2021/07/03 12:27:58;;;;;;;5.73;4.07;;;25.30;94.00;;;;;;5012320;28;20468;-76
2021/07/03 12:30:28;;;;;;;4.73;4.23;;;25.30;94.10;;;;;;5012375;28;20589;-76
2021/07/03 12:33:08;;;;;;;4.07;3.70;;;25.20;94.10;;;;;;5013498;28;20456;-76
2021/07/03 12:35:39;;;;;;;4.60;4.20;;;25.10;94.10;;;;;;5012561;28;20436;-76
2021/07/03 12:38:10;;;;;;;3.80;3.50;;;25.00;94.10;;;;;;5013716;28;20512;-76
2021/07/03 12:40:41;;;;;;;5.00;4.03;;;25.00;94.20;;;;;;5012627;28;20468;-76
2021/07/03 12:43:12;;;;;;;9.43;5.00;;;24.90;94.10;;;;;;5013979;28;20428;-76
2021/07/03 12:45:43;;;;;;;4.17;3.87;;;24.90;94.10;;;;;;5012195;28;20892;-76
2021/07/03 12:48:13;;;;;;;4.30;3.90;;;24.90;94.20;;;;;;5013673;28;20968;-76
2021/07/03 12:50:44;;;;;;;3.80;3.50;;;24.90;94.20;;;;;;5013899;28;20452;-76
2021/07/03 12:53:15;;;;;;;4.60;4.15;;;24.90;94.20;;;;;;5012093;28;20458;-76
2021/07/03 12:55:45;;;;;;;4.90;3.47;;;24.90;94.10;;;;;;5012566;28;20193;-76
2021/07/03 12:58:24;;;;;;;5.23;3.67;;;24.90;94.00;;;;;;5012006;28;20448;-76
2021/07/03 13:01:06;;;;;;;4.00;3.70;;;25.00;93.90;;;;;;5013294;28;20471;-76
2021/07/03 13:03:34;;;;;;;5.07;3.87;;;25.00;93.90;;;;;;5013427;28;20449;-76
2021/07/03 13:06:05;;;;;;;4.03;3.40;;;25.00;93.90;;;;;;5012674;28;20448;-76
2021/07/03 13:08:36;;;;;;;4.67;4.27;;;25.00;93.90;;;;;;5012807;28;20490;-76
2021/07/03 13:11:06;;;;;;;3.40;3.17;;;25.10;94.00;;;;;;5012137;28;20512;-76
2021/07/03 13:13:35;;;;;;;4.40;4.03;;;25.10;93.80;;;;;;5011916;28;20503;-76
2021/07/03 13:16:05;;;;;;;4.23;3.70;;;25.20;93.70;;;;;;5014869;28;20429;-76
2021/07/03 13:18:38;;;;;;;4.53;3.70;;;25.30;93.80;;;;;;5017198;28;20440;-76
2021/07/03 13:21:09;;;;;;;3.90;3.40;;;25.30;93.70;;;;;;5015506;28;20476;-75
2021/07/03 13:23:44;;;;;;;4.40;4.00;;;25.30;93.80;;;;;;5016637;28;20454;-76
2021/07/03 13:26:14;;;;;;;3.87;3.50;;;25.40;93.80;;;;;;4997584;28;20448;-76
2021/07/03 13:28:44;;;;;;;3.97;3.67;;;25.40;93.80;;;;;;4997877;28;20575;-75
2021/07/03 13:31:14;;;;;;;4.00;3.60;;;25.30;93.70;;;;;;4996997;28;20535;-75
2021/07/03 13:33:42;;;;;;;4.70;4.30;;;25.30;93.80;;;;;;4995943;28;20471;-76
2021/07/03 13:36:12;;;;;;;3.80;3.43;;;25.40;93.10;;;;;;4995117;28;20226;-74
2021/07/03 13:38:40;;;;;;;5.30;3.33;;;25.30;93.20;;;;;;4997250;28;20480;-71
2021/07/03 13:41:10;;;;;;;4.27;3.87;;;25.30;93.40;;;;;;5013815;28;20866;-73
2021/07/03 13:43:40;;;;;;;4.03;3.40;;;25.20;93.50;;;;;;5016294;28;20487;-72
2021/07/03 13:46:08;;;;;;;4.40;3.60;;;25.20;93.50;;;;;;5016762;28;20444;-72
2021/07/03 13:48:36;;;;;;;4.47;3.30;;;25.30;93.50;;;;;;5015676;28;20501;-71
2021/07/03 13:51:05;;;;;;;3.53;3.23;;;25.40;93.10;;;;;;5014931;28;21003;-77
2021/07/03 13:53:33;;;;;;;4.03;3.50;;;25.50;93.10;;;;;;5016399;28;20550;-74
2021/07/03 13:56:01;;;;;;;5.67;3.77;;;25.50;93.20;;;;;;5015041;28;20878;-72
2021/07/03 13:58:31;;;;;;;3.70;3.40;;;25.50;93.20;;;;;;5016281;28;20440;-75
2021/07/03 14:00:59;;;;;;;5.00;4.60;;;25.50;93.20;;;;;;5016543;28;20464;-72
2021/07/03 14:03:28;;;;;;;3.87;3.50;;;25.50;93.40;;;;;;5014902;28;20547;-72
2021/07/03 14:05:56;;;;;;;4.50;3.47;;;25.50;93.60;;;;;;5016943;28;20443;-73
2021/07/03 14:08:24;;;;;;;3.83;3.53;;;25.50;93.70;;;;;;5016512;28;20468;-73
2021/07/03 14:10:52;;;;;;;3.93;3.63;;;25.50;93.60;;;;;;5016891;28;20466;-74
2021/07/03 14:13:20;;;;;;;3.23;2.93;;;25.50;93.50;;;;;;5016659;28;20440;-73
2021/07/03 14:15:50;;;;;;;3.63;3.33;;;25.40;93.50;;;;;;5016494;28;20448;-74
2021/07/03 14:18:18;;;;;;;3.93;3.63;;;25.30;93.50;;;;;;5016805;28;20474;-73
2021/07/03 14:20:46;;;;;;;5.67;4.30;;;25.30;93.50;;;;;;5016319;28;20492;-74
2021/07/03 14:23:15;;;;;;;3.80;3.50;;;25.30;93.40;;;;;;5016128;28;20548;-73
2021/07/03 14:25:43;;;;;;;4.50;3.35;;;25.30;93.50;;;;;;5016152;28;20456;-74
2021/07/03 14:28:11;;;;;;;13.43;8.73;;;25.30;93.50;;;;;;5014036;28;20197;-75
2021/07/03 14:30:40;;;;;;;8.10;4.63;;;25.30;93.50;;;;;;5015029;28;20483;-73
2021/07/03 14:33:09;;;;;;;4.20;3.80;;;25.30;93.50;;;;;;5015774;28;20452;-74
2021/07/03 14:35:37;;;;;;;4.10;3.70;;;25.30;93.60;;;;;;5015776;28;20443;-75
2021/07/03 14:38:05;;;;;;;3.80;3.50;;;25.30;93.50;;;;;;5014472;28;20814;-74
2021/07/03 14:40:34;;;;;;;4.10;3.70;;;25.30;93.50;;;;;;5013800;28;20446;-74
2021/07/03 14:43:02;;;;;;;4.63;4.13;;;25.30;93.40;;;;;;5015700;28;20190;-75
2021/07/03 14:45:30;;;;;;;3.87;3.50;;;25.20;93.50;;;;;;5015501;28;20615;-74
2021/07/03 14:47:58;;;;;;;4.30;3.90;;;25.10;93.40;;;;;;5015739;28;20782;-73
2021/07/03 14:50:33;;;;;;;4.90;3.70;;;25.10;93.40;;;;;;5015223;28;20490;-74
2021/07/03 14:53:01;;;;;;;4.60;4.13;;;25.00;93.40;;;;;;5014278;28;20447;-74
2021/07/03 14:55:30;;;;;;;4.07;3.67;;;25.00;93.50;;;;;;5011583;28;20457;-74
2021/07/03 14:57:58;;;;;;;6.43;3.60;;;25.10;93.50;;;;;;5015079;28;20449;-73
2021/07/03 15:00:26;;;;;;;4.30;4.00;;;25.10;93.40;;;;;;5015197;28;20464;-73
2021/07/03 15:02:54;;;;;;;4.20;3.80;;;25.10;93.40;;;;;;5014989;28;20428;-73
2021/07/03 15:05:22;;;;;;;6.20;4.53;;;25.10;93.20;;;;;;5015317;28;20535;-74
2021/07/03 15:07:52;;;;;;;3.67;3.37;;;25.20;93.30;;;;;;5015460;28;20440;-75
2021/07/03 15:10:20;;;;;;;3.90;3.60;;;25.20;93.30;;;;;;5013979;28;20571;-76
2021/07/03 15:12:49;;;;;;;3.90;3.60;;;25.30;93.20;;;;;;5013995;28;20817;-74
2021/07/03 15:15:17;;;;;;;3.93;3.60;;;25.30;93.20;;;;;;5014714;28;20444;-75
2021/07/03 15:17:45;;;;;;;4.17;3.87;;;25.30;93.40;;;;;;5014252;28;20455;-75
2021/07/03 15:20:15;;;;;;;4.33;3.90;;;25.30;93.10;;;;;;5013821;28;20468;-74
2021/07/03 15:22:44;;;;;;;3.97;3.67;;;25.40;93.10;;;;;;5014327;28;20864;-75
2021/07/03 15:25:15;;;;;;;3.70;3.40;;;25.40;93.00;;;;;;5015219;28;20440;-76
2021/07/03 15:27:47;;;;;;;4.30;3.90;;;25.40;93.00;;;;;;5015348;28;20953;-75
2021/07/03 15:30:18;;;;;;;3.27;3.07;;;25.40;92.90;;;;;;5013223;28;20487;-75
2021/07/03 15:32:51;;;;;;;4.07;3.78;;;25.40;92.90;;;;;;5014429;28;20447;-76
2021/07/03 15:35:20;;;;;;;3.93;3.60;;;25.40;92.90;;;;;;5015110;28;20265;-76
2021/07/03 15:37:49;;;;;;;3.57;3.20;;;25.40;92.90;;;;;;5013538;28;20452;-76
2021/07/03 15:40:19;;;;;;;3.73;3.43;;;25.50;92.90;;;;;;5012517;28;20463;-76
2021/07/03 15:42:48;;;;;;;3.67;3.37;;;25.50;92.70;;;;;;5013803;28;20449;-76
2021/07/03 15:45:17;;;;;;;3.93;3.63;;;25.50;93.10;;;;;;5013550;28;21059;-75
2021/07/03 15:47:45;;;;;;;5.73;3.80;;;25.50;92.80;;;;;;5013152;28;20547;-75
2021/07/03 15:50:15;;;;;;;3.93;3.53;;;25.50;92.70;;;;;;5014763;28;20570;-76
2021/07/03 15:52:43;;;;;;;4.10;3.40;;;25.50;92.60;;;;;;5014295;28;20454;-76
2021/07/03 15:55:14;;;;;;;3.97;3.57;;;25.60;92.60;;;;;;5014157;28;20440;-75
2021/07/03 15:57:44;;;;;;;3.73;3.30;;;25.60;92.50;;;;;;5013058;28;20440;-76
2021/07/03 16:00:14;;;;;;;4.03;3.73;;;25.60;92.40;;;;;;5012899;28;20471;-76
2021/07/03 16:02:43;;;;;;;3.50;3.20;;;25.60;92.40;;;;;;5013059;28;20483;-75
2021/07/03 16:05:13;;;;;;;3.80;3.50;;;25.60;92.40;;;;;;5012936;28;20440;-75
2021/07/03 16:07:42;;;;;;;4.10;3.80;;;25.70;92.30;;;;;;5013704;28;20503;-75
2021/07/03 16:10:12;;;;;;;3.30;3.10;;;25.70;92.20;;;;;;5012650;28;20842;-75
2021/07/03 16:12:40;;;;;;;3.70;3.20;;;25.70;92.40;;;;;;5012177;28;20446;-76
2021/07/03 16:15:15;;;;;;;3.83;3.43;;;25.80;92.00;;;;;;5013191;28;20394;-76
2021/07/03 16:17:43;;;;;;;3.97;3.67;;;25.80;92.10;;;;;;5014108;28;20515;-75
2021/07/03 16:20:13;;;;;;;3.90;3.60;;;25.90;92.20;;;;;;5012454;28;20888;-75
2021/07/03 16:22:41;;;;;;;3.63;3.23;;;25.90;92.10;;;;;;5012531;28;20953;-76
2021/07/03 16:25:12;;;;;;;4.27;3.60;;;26.00;92.10;;;;;;5012615;28;20453;-76
2021/07/03 16:27:41;;;;;;;4.10;3.75;;;26.00;92.10;;;;;;5012457;28;20478;-76
2021/07/03 16:30:11;;;;;;;4.20;3.90;;;26.10;91.50;;;;;;5012205;28;20586;-75
2021/07/03 16:32:41;;;;;;;3.37;3.17;;;26.20;91.50;;;;;;5012453;28;20576;-76
2021/07/03 16:35:11;;;;;;;4.70;3.60;;;26.20;91.60;;;;;;5013990;28;20425;-76
2021/07/03 16:37:40;;;;;;;3.97;3.67;;;26.20;91.70;;;;;;5013686;28;20477;-76
2021/07/03 16:40:09;;;;;;;3.67;3.37;;;26.20;91.60;;;;;;5013788;28;20456;-75
2021/07/03 16:42:37;;;;;;;3.57;3.27;;;26.20;91.70;;;;;;5012240;28;21008;-75
2021/07/03 16:45:07;;;;;;;3.50;3.20;;;26.20;91.90;;;;;;5013802;28;20511;-76
2021/07/03 16:47:35;;;;;;;4.37;4.00;;;26.20;91.90;;;;;;5009571;28;20968;-76
2021/07/03 16:50:06;;;;;;;4.20;3.90;;;26.30;92.00;;;;;;5011070;28;20921;-72
2021/07/03 16:52:34;;;;;;;4.03;3.73;;;26.30;92.10;;;;;;5013541;28;20657;-75
2021/07/03 16:55:04;;;;;;;3.60;3.30;;;26.40;92.20;;;;;;5012000;28;20476;-75
2021/07/03 16:57:32;;;;;;;4.43;4.03;;;26.40;92.20;;;;;;5011873;28;20971;-75
2021/07/03 17:00:00;;;;;;;3.30;3.10;;;26.50;92.10;;;;;;5011996;28;20472;-75
2021/07/03 17:02:28;;;;;;;5.37;3.13;;;26.50;91.90;;;;;;5013515;28;20439;-76
2021/07/03 17:04:56;;;;;;;3.20;2.90;;;26.40;91.90;;;;;;5012212;28;20833;-76
2021/07/03 17:07:26;;;;;;;4.20;3.77;;;26.50;91.80;;;;;;5013365;28;20433;-75
2021/07/03 17:09:54;;;;;;;3.30;3.00;;;26.50;92.00;;;;;;5011555;28;20503;-76
2021/07/03 17:12:22;;;;;;;3.90;3.60;;;26.50;91.60;;;;;;5012574;28;20458;-75
2021/07/03 17:14:50;;;;;;;4.00;3.70;;;26.50;91.60;;;;;;5013625;28;20444;-76
2021/07/03 17:17:18;;;;;;;3.73;3.43;;;26.50;91.40;;;;;;5013192;28;20432;-75
2021/07/03 17:19:46;;;;;;;4.53;3.20;;;26.50;91.50;;;;;;5011903;28;20519;-76